createdAt,value
2023-05-05T14:03:35.888Z,26.50
2023-05-05T14:06:02.671Z,26.50
2023-05-05T14:08:29.474Z,26.30
2023-05-05T14:10:56.276Z,26.40
2023-05-05T14:13:23.008Z,26.50
2023-05-05T14:15:50.771Z,26.40
2023-05-05T14:18:17.470Z,26.40
2023-05-05T14:20:44.199Z,26.50
2023-05-05T14:23:11.018Z,26.50
2023-05-05T14:25:38.381Z,26.40
2023-05-05T14:28:05.477Z,26.50
2023-05-05T14:30:32.246Z,26.40
2023-05-05T14:32:59.094Z,26.40
2023-05-05T14:35:25.937Z,26.40
2023-05-05T14:37:52.719Z,26.30
2023-05-05T14:40:19.444Z,26.20
2023-05-05T14:42:46.237Z,26.20
2023-05-05T14:45:13.012Z,26.20
2023-05-05T14:47:39.866Z,26.20
2023-05-05T14:50:09.920Z,26.20
2023-05-05T14:52:40.372Z,26.20
2023-05-05T14:55:08.067Z,26.20
2023-05-05T14:57:35.099Z,26.20
2023-05-05T15:00:01.950Z,26.20
2023-05-05T15:02:28.721Z,26.10
2023-05-05T15:04:55.630Z,26.10
2023-05-05T15:07:22.754Z,26.10
2023-05-05T15:09:49.574Z,26.10
2023-05-05T15:12:16.425Z,26.00
2023-05-05T15:14:43.178Z,25.90
2023-05-05T15:17:09.942Z,26.00
2023-05-05T15:19:36.744Z,26.00
2023-05-05T15:22:03.498Z,25.90
2023-05-05T15:24:30.268Z,25.80
2023-05-05T15:26:57.015Z,25.70
2023-05-05T15:29:23.819Z,25.60
2023-05-05T15:31:50.743Z,25.60
2023-05-05T15:34:17.555Z,25.70
2023-05-05T15:36:44.337Z,25.70
2023-05-05T15:39:11.136Z,25.70
2023-05-05T15:41:38.006Z,25.80
2023-05-05T15:44:04.991Z,25.80
2023-05-05T15:46:35.506Z,25.90
2023-05-05T15:49:02.387Z,25.80
2023-05-05T15:51:29.161Z,25.80
2023-05-05T15:53:55.929Z,25.80
2023-05-05T15:56:22.724Z,25.60
2023-05-05T15:58:49.717Z,25.70
2023-05-05T16:01:16.583Z,25.70
2023-05-05T16:03:43.477Z,25.50
2023-05-05T16:06:12.148Z,25.40
2023-05-05T16:08:39.105Z,25.40
2023-05-05T16:11:06.728Z,25.40
2023-05-05T16:13:33.528Z,25.30
2023-05-05T16:16:00.297Z,25.30
2023-05-05T16:18:27.157Z,25.30
2023-05-05T16:20:53.947Z,25.10
2023-05-05T16:23:20.775Z,25.00
2023-05-05T16:25:47.534Z,25.00
2023-05-05T16:28:14.361Z,24.90
2023-05-05T16:30:42.880Z,24.80
2023-05-05T16:33:09.964Z,24.80
2023-05-05T16:35:36.769Z,24.80
2023-05-05T16:38:03.669Z,24.70
2023-05-05T16:40:30.531Z,24.70
2023-05-05T16:42:57.269Z,24.60
2023-05-05T16:45:24.441Z,24.60
2023-05-05T16:47:51.346Z,24.50
2023-05-05T16:50:18.330Z,24.50
2023-05-05T16:52:45.278Z,24.50
2023-05-05T16:55:12.271Z,24.40
2023-05-05T16:57:39.195Z,24.30
2023-05-05T17:00:07.087Z,24.20
2023-05-05T17:02:35.307Z,24.20
2023-05-05T17:05:02.734Z,24.20
2023-05-05T17:07:29.698Z,24.20
2023-05-05T17:09:57.064Z,24.10
2023-05-05T17:12:24.556Z,24.00
2023-05-05T17:14:51.479Z,24.00
2023-05-05T17:17:18.384Z,23.90
2023-05-05T17:19:45.365Z,23.80
2023-05-05T17:22:12.100Z,23.70
2023-05-05T17:24:38.875Z,23.80
2023-05-05T17:27:05.650Z,23.70
2023-05-05T17:29:35.684Z,23.60
2023-05-05T17:32:02.860Z,23.60
2023-05-05T17:34:29.721Z,23.40
2023-05-05T17:36:56.542Z,23.40
2023-05-05T17:39:23.282Z,23.40
2023-05-05T17:41:50.056Z,23.30
2023-05-05T17:44:16.877Z,23.30
2023-05-05T17:46:43.678Z,23.20
2023-05-05T17:52:00.927Z,23.10
2023-05-05T17:54:27.753Z,23.00
2023-05-05T17:56:55.041Z,23.00
2023-05-05T17:59:21.853Z,23.00
2023-05-05T18:01:49.826Z,22.90
2023-05-05T18:04:16.681Z,22.90
2023-05-05T18:06:43.508Z,22.70
2023-05-05T18:09:11.281Z,22.70
2023-05-05T18:11:38.186Z,22.60
2023-05-05T18:14:05.093Z,22.70
2023-05-05T18:16:31.960Z,22.60
2023-05-05T18:18:58.707Z,22.50
2023-05-05T18:21:25.898Z,22.50
2023-05-05T18:23:57.248Z,22.50
2023-05-05T18:26:28.662Z,22.40
2023-05-05T18:28:55.383Z,22.40
2023-05-05T18:31:22.324Z,22.40
2023-05-05T18:33:49.111Z,22.30
2023-05-05T18:36:16.385Z,22.20
2023-05-05T18:38:43.330Z,22.20
2023-05-05T18:41:10.177Z,22.20
2023-05-05T18:43:36.958Z,22.10
2023-05-05T18:46:03.685Z,22.10
2023-05-05T18:48:32.059Z,22.00
2023-05-05T18:51:02.658Z,21.90
2023-05-05T18:53:30.933Z,21.90
2023-05-05T18:55:59.203Z,21.80
2023-05-05T18:58:27.358Z,21.80
2023-05-05T19:00:54.745Z,21.80
2023-05-05T19:03:22.131Z,21.70
2023-05-05T19:05:48.952Z,21.60
2023-05-05T19:08:16.841Z,21.70
2023-05-05T19:10:43.652Z,21.50
2023-05-05T19:13:12.201Z,21.50
2023-05-05T19:15:39.189Z,21.50
2023-05-05T19:18:07.208Z,21.40
2023-05-05T19:20:35.108Z,21.50
2023-05-05T19:23:04.547Z,21.40
2023-05-05T19:25:31.698Z,21.40
2023-05-05T19:27:59.582Z,21.40
2023-05-05T19:30:27.663Z,21.30
2023-05-05T19:32:56.014Z,21.30
2023-05-05T19:35:23.913Z,21.20
2023-05-05T19:37:50.965Z,21.30
2023-05-05T19:40:17.807Z,21.30
2023-05-05T19:42:45.558Z,21.10
2023-05-05T19:45:12.496Z,21.10
2023-05-05T19:47:40.560Z,21.10
2023-05-05T19:50:08.394Z,21.10
2023-05-05T19:52:36.757Z,21.00
2023-05-05T19:55:04.014Z,21.00
2023-05-05T19:57:31.236Z,20.90
2023-05-05T19:59:57.987Z,20.90
2023-05-05T20:02:26.641Z,20.90
2023-05-05T20:04:53.675Z,20.80
2023-05-05T20:07:20.800Z,20.80
2023-05-05T20:09:47.592Z,20.80
2023-05-05T20:12:14.784Z,20.70
2023-05-05T20:14:42.016Z,20.70
2023-05-05T20:17:08.819Z,20.60
2023-05-05T20:19:35.652Z,20.60
2023-05-05T20:22:02.384Z,20.50
2023-05-05T20:24:29.854Z,20.50
2023-05-05T20:26:56.602Z,20.50
2023-05-05T20:29:23.448Z,20.40
2023-05-05T20:31:50.273Z,20.50
2023-05-05T20:34:17.128Z,20.40
2023-05-05T20:36:43.898Z,20.30
2023-05-05T20:39:15.818Z,20.30
2023-05-05T20:41:42.718Z,20.20
2023-05-05T20:44:10.263Z,20.20
2023-05-05T20:46:37.652Z,20.20
2023-05-05T20:49:04.465Z,20.20
2023-05-05T20:51:34.238Z,20.20
2023-05-05T20:54:02.137Z,20.10
2023-05-05T20:56:28.918Z,20.00
2023-05-05T20:58:56.815Z,20.00
2023-05-05T21:01:23.631Z,20.00
2023-05-05T21:03:50.518Z,20.00
2023-05-05T21:06:19.535Z,19.90
2023-05-05T21:08:47.180Z,20.00
2023-05-05T21:11:14.962Z,19.90
2023-05-05T21:13:41.682Z,19.90
2023-05-05T21:16:09.187Z,19.80
2023-05-05T21:18:36.042Z,19.90
2023-05-05T21:21:02.875Z,19.80
2023-05-05T21:23:31.094Z,19.70
2023-05-05T21:25:59.035Z,19.70
2023-05-05T21:28:25.732Z,19.60
2023-05-05T21:33:22.213Z,19.60
2023-05-05T21:35:48.993Z,19.60
2023-05-05T21:38:15.998Z,19.60
2023-05-05T21:40:42.886Z,19.50
2023-05-05T21:43:09.684Z,19.40
2023-05-05T21:45:36.474Z,19.40
2023-05-05T21:48:03.398Z,19.40
2023-05-05T21:50:30.199Z,19.40
2023-05-05T21:52:56.974Z,19.30
2023-05-05T21:55:23.797Z,19.30
2023-05-05T21:57:50.655Z,19.30
2023-05-05T22:00:17.793Z,19.30
2023-05-05T22:02:45.422Z,19.30
2023-05-05T22:05:12.364Z,19.20
2023-05-05T22:07:39.502Z,19.20
2023-05-05T22:10:06.744Z,19.20
2023-05-05T22:12:33.578Z,19.10
2023-05-05T22:15:00.318Z,19.10
2023-05-05T22:17:27.072Z,19.10
2023-05-05T22:19:53.868Z,19.10
2023-05-05T22:22:20.653Z,19.10
2023-05-05T22:24:47.396Z,19.10
2023-05-05T22:27:14.147Z,19.10
2023-05-05T22:29:41.010Z,19.00
2023-05-05T22:32:07.763Z,19.00
2023-05-05T22:34:35.723Z,18.90
2023-05-05T22:37:02.566Z,18.90
2023-05-05T22:39:29.338Z,19.00
2023-05-05T22:41:56.304Z,18.90
2023-05-05T22:44:23.036Z,18.90
2023-05-05T22:46:49.787Z,18.90
2023-05-05T22:49:16.667Z,18.80
2023-05-05T22:51:43.486Z,18.90
2023-05-05T22:54:10.648Z,18.80
2023-05-05T22:56:37.668Z,18.80
2023-05-05T22:59:05.509Z,18.80
2023-05-05T23:01:33.814Z,18.70
2023-05-05T23:04:00.717Z,18.80
2023-05-05T23:06:27.993Z,18.70
2023-05-05T23:08:54.780Z,18.70
2023-05-05T23:11:21.612Z,18.70
2023-05-05T23:13:48.417Z,18.60
2023-05-05T23:16:15.170Z,18.60
2023-05-05T23:18:42.052Z,18.60
2023-05-05T23:21:11.590Z,18.50
2023-05-05T23:23:38.389Z,18.50
2023-05-05T23:26:05.320Z,18.50
2023-05-05T23:28:32.130Z,18.50
2023-05-05T23:30:59.000Z,18.40
2023-05-05T23:33:25.947Z,18.40
2023-05-05T23:35:53.164Z,18.40
2023-05-05T23:38:19.954Z,18.40
2023-05-05T23:40:46.733Z,18.30
2023-05-05T23:43:13.626Z,18.30
2023-05-05T23:45:40.552Z,18.30
2023-05-05T23:48:07.370Z,18.20
2023-05-05T23:50:34.216Z,18.10
2023-05-05T23:53:01.058Z,18.10
2023-05-05T23:55:27.845Z,18.10
2023-05-05T23:57:54.691Z,18.00
